sensor_id;sensor_type;location;lat;lon;timestamp;pressure;altitude;pressure_sealevel;temperature;humidity
9261;BME280;4667;42.726;23.252;2022-10-26T00:01:31;95671.34;;;16.33;nan
9261;BME280;4667;42.726;23.252;2022-10-26T00:03:58;95674.97;;;16.27;nan
9261;BME280;4667;42.726;23.252;2022-10-26T00:06:25;95671.78;;;16.32;nan
9261;BME280;4667;42.726;23.252;2022-10-26T00:08:54;95674.25;;;16.23;nan
9261;BME280;4667;42.726;23.252;2022-10-26T00:11:22;95674.53;;;16.32;nan
9261;BME280;4667;42.726;23.252;2022-10-26T00:13:49;95665.31;;;16.46;nan
9261;BME280;4667;42.726;23.252;2022-10-26T00:16:18;95665.41;;;16.39;nan
9261;BME280;4667;42.726;23.252;2022-10-26T00:18:48;95675.72;;;16.31;nan
9261;BME280;4667;42.726;23.252;2022-10-26T00:21:15;95678.63;;;16.17;nan
9261;BME280;4667;42.726;23.252;2022-10-26T00:23:42;95670.84;;;16.15;nan
9261;BME280;4667;42.726;23.252;2022-10-26T00:26:10;95678.31;;;16.11;nan
9261;BME280;4667;42.726;23.252;2022-10-26T00:28:37;95677.84;;;16.16;nan
9261;BME280;4667;42.726;23.252;2022-10-26T00:31:06;95668.88;;;16.16;nan
9261;BME280;4667;42.726;23.252;2022-10-26T00:33:33;95678.47;;;16.27;nan
9261;BME280;4667;42.726;23.252;2022-10-26T00:36:02;95681.97;;;16.01;nan
9261;BME280;4667;42.726;23.252;2022-10-26T00:38:29;95673.63;;;16.12;nan
9261;BME280;4667;42.726;23.252;2022-10-26T00:40:55;95676.22;;;16.22;nan
9261;BME280;4667;42.726;23.252;2022-10-26T00:43:38;95678.06;;;16.02;nan
9261;BME280;4667;42.726;23.252;2022-10-26T00:46:08;95679.91;;;16.09;nan
9261;BME280;4667;42.726;23.252;2022-10-26T00:48:40;95673.88;;;16.21;nan
9261;BME280;4667;42.726;23.252;2022-10-26T00:51:14;95677.50;;;16.14;nan
9261;BME280;4667;42.726;23.252;2022-10-26T00:53:42;95666.91;;;16.16;nan
9261;BME280;4667;42.726;23.252;2022-10-26T00:56:09;95667.69;;;16.17;nan
9261;BME280;4667;42.726;23.252;2022-10-26T00:58:37;95663.38;;;16.19;nan
9261;BME280;4667;42.726;23.252;2022-10-26T01:01:04;95662.50;;;16.26;nan
9261;BME280;4667;42.726;23.252;2022-10-26T01:03:32;95664.03;;;16.27;nan
9261;BME280;4667;42.726;23.252;2022-10-26T01:06:01;95664.09;;;16.23;nan
9261;BME280;4667;42.726;23.252;2022-10-26T01:08:30;95663.63;;;16.28;nan
9261;BME280;4667;42.726;23.252;2022-10-26T01:10:57;95666.34;;;16.28;nan
9261;BME280;4667;42.726;23.252;2022-10-26T01:13:27;95659.25;;;16.08;nan
9261;BME280;4667;42.726;23.252;2022-10-26T01:16:04;95658.75;;;15.86;nan
9261;BME280;4667;42.726;23.252;2022-10-26T01:18:39;95662.47;;;15.99;nan
9261;BME280;4667;42.726;23.252;2022-10-26T01:21:43;95663.31;;;15.96;nan
9261;BME280;4667;42.726;23.252;2022-10-26T01:24:39;95666.69;;;15.73;nan
9261;BME280;4667;42.726;23.252;2022-10-26T01:27:21;95667.47;;;15.74;nan
9261;BME280;4667;42.726;23.252;2022-10-26T01:33:08;95663.00;;;15.57;nan
9261;BME280;4667;42.726;23.252;2022-10-26T01:35:40;95662.31;;;15.45;nan
9261;BME280;4667;42.726;23.252;2022-10-26T01:38:10;95653.03;;;15.39;nan
9261;BME280;4667;42.726;23.252;2022-10-26T01:40:44;95655.16;;;15.25;nan
9261;BME280;4667;42.726;23.252;2022-10-26T01:43:13;95651.47;;;15.04;nan
9261;BME280;4667;42.726;23.252;2022-10-26T01:45:42;95646.41;;;15.03;nan
9261;BME280;4667;42.726;23.252;2022-10-26T01:48:15;95656.63;;;14.92;nan
9261;BME280;4667;42.726;23.252;2022-10-26T01:50:44;95663.69;;;14.89;nan
9261;BME280;4667;42.726;23.252;2022-10-26T01:53:13;95657.63;;;14.71;nan
9261;BME280;4667;42.726;23.252;2022-10-26T01:55:47;95652.53;;;14.73;nan
9261;BME280;4667;42.726;23.252;2022-10-26T02:01:41;95650.75;;;14.52;nan
9261;BME280;4667;42.726;23.252;2022-10-26T02:04:17;95648.47;;;14.44;nan
9261;BME280;4667;42.726;23.252;2022-10-26T02:06:52;95644.22;;;14.39;nan
9261;BME280;4667;42.726;23.252;2022-10-26T02:09:27;95654.34;;;14.39;nan
9261;BME280;4667;42.726;23.252;2022-10-26T02:11:55;95653.25;;;14.29;nan
9261;BME280;4667;42.726;23.252;2022-10-26T02:14:28;95653.28;;;14.22;nan
9261;BME280;4667;42.726;23.252;2022-10-26T02:17:03;95660.59;;;14.32;nan
9261;BME280;4667;42.726;23.252;2022-10-26T02:19:37;95662.97;;;14.26;nan
9261;BME280;4667;42.726;23.252;2022-10-26T02:22:13;95664.22;;;14.15;nan
9261;BME280;4667;42.726;23.252;2022-10-26T02:24:42;95663.91;;;14.06;nan
9261;BME280;4667;42.726;23.252;2022-10-26T02:27:14;95658.81;;;14.08;nan
9261;BME280;4667;42.726;23.252;2022-10-26T02:29:42;95658.56;;;13.84;nan
9261;BME280;4667;42.726;23.252;2022-10-26T02:32:09;95664.81;;;13.81;nan
9261;BME280;4667;42.726;23.252;2022-10-26T02:34:40;95666.81;;;13.67;nan
9261;BME280;4667;42.726;23.252;2022-10-26T02:37:09;95664.44;;;13.72;nan
9261;BME280;4667;42.726;23.252;2022-10-26T02:39:39;95657.41;;;13.78;nan
9261;BME280;4667;42.726;23.252;2022-10-26T02:42:08;95666.38;;;13.79;nan
9261;BME280;4667;42.726;23.252;2022-10-26T03:05:19;95683.97;;;14.33;nan
9261;BME280;4667;42.726;23.252;2022-10-26T03:07:47;95694.47;;;14.31;nan
9261;BME280;4667;42.726;23.252;2022-10-26T03:10:14;95696.81;;;14.32;nan
9261;BME280;4667;42.726;23.252;2022-10-26T03:12:40;95695.69;;;14.26;nan
9261;BME280;4667;42.726;23.252;2022-10-26T03:15:08;95691.69;;;14.45;nan
9261;BME280;4667;42.726;23.252;2022-10-26T03:17:35;95696.41;;;14.38;nan
9261;BME280;4667;42.726;23.252;2022-10-26T03:20:02;95704.19;;;14.36;nan
9261;BME280;4667;42.726;23.252;2022-10-26T03:22:31;95704.59;;;14.30;nan
9261;BME280;4667;42.726;23.252;2022-10-26T03:24:57;95707.31;;;14.38;nan
9261;BME280;4667;42.726;23.252;2022-10-26T03:27:24;95704.59;;;14.38;nan
9261;BME280;4667;42.726;23.252;2022-10-26T03:29:51;95708.09;;;14.42;nan
9261;BME280;4667;42.726;23.252;2022-10-26T03:32:18;95710.03;;;14.38;nan
9261;BME280;4667;42.726;23.252;2022-10-26T03:34:45;95708.88;;;14.35;nan
9261;BME280;4667;42.726;23.252;2022-10-26T03:37:12;95709.25;;;14.37;nan
9261;BME280;4667;42.726;23.252;2022-10-26T03:39:40;95706.19;;;14.24;nan
9261;BME280;4667;42.726;23.252;2022-10-26T03:42:10;95715.63;;;14.09;nan
9261;BME280;4667;42.726;23.252;2022-10-26T03:44:37;95717.19;;;14.10;nan
9261;BME280;4667;42.726;23.252;2022-10-26T03:47:04;95713.25;;;14.15;nan
9261;BME280;4667;42.726;23.252;2022-10-26T03:49:31;95711.00;;;14.03;nan
9261;BME280;4667;42.726;23.252;2022-10-26T03:51:58;95718.00;;;14.00;nan
9261;BME280;4667;42.726;23.252;2022-10-26T03:54:24;95723.06;;;14.05;nan
9261;BME280;4667;42.726;23.252;2022-10-26T03:56:53;95721.47;;;14.11;nan
9261;BME280;4667;42.726;23.252;2022-10-26T03:59:19;95719.53;;;14.05;nan
9261;BME280;4667;42.726;23.252;2022-10-26T04:01:46;95713.28;;;14.11;nan
9261;BME280;4667;42.726;23.252;2022-10-26T04:04:15;95721.19;;;13.88;nan
9261;BME280;4667;42.726;23.252;2022-10-26T04:06:42;95718.84;;;13.86;nan
9261;BME280;4667;42.726;23.252;2022-10-26T04:09:09;95716.13;;;13.83;nan
9261;BME280;4667;42.726;23.252;2022-10-26T04:11:35;95719.66;;;13.76;nan
9261;BME280;4667;42.726;23.252;2022-10-26T04:14:04;95723.53;;;13.82;nan
9261;BME280;4667;42.726;23.252;2022-10-26T04:16:30;95729.75;;;13.79;nan
9261;BME280;4667;42.726;23.252;2022-10-26T04:18:57;95721.94;;;13.92;nan
9261;BME280;4667;42.726;23.252;2022-10-26T04:21:24;95725.06;;;13.90;nan
9261;BME280;4667;42.726;23.252;2022-10-26T04:23:51;95723.91;;;13.84;nan
9261;BME280;4667;42.726;23.252;2022-10-26T04:26:18;95715.31;;;13.93;nan
9261;BME280;4667;42.726;23.252;2022-10-26T04:28:45;95716.88;;;13.90;nan
9261;BME280;4667;42.726;23.252;2022-10-26T04:31:13;95736.75;;;13.87;nan
9261;BME280;4667;42.726;23.252;2022-10-26T04:33:40;95718.81;;;13.94;nan
9261;BME280;4667;42.726;23.252;2022-10-26T04:36:07;95725.03;;;13.98;nan
9261;BME280;4667;42.726;23.252;2022-10-26T04:38:34;95735.91;;;13.98;nan
9261;BME280;4667;42.726;23.252;2022-10-26T04:41:00;95735.19;;;13.86;nan
9261;BME280;4667;42.726;23.252;2022-10-26T04:43:27;95731.66;;;13.89;nan
9261;BME280;4667;42.726;23.252;2022-10-26T04:45:54;95732.47;;;13.86;nan
9261;BME280;4667;42.726;23.252;2022-10-26T04:48:23;95735.97;;;13.87;nan
9261;BME280;4667;42.726;23.252;2022-10-26T04:50:51;95740.22;;;13.92;nan
9261;BME280;4667;42.726;23.252;2022-10-26T04:53:19;95739.88;;;13.79;nan
9261;BME280;4667;42.726;23.252;2022-10-26T04:55:46;95748.03;;;13.79;nan
9261;BME280;4667;42.726;23.252;2022-10-26T04:58:13;95753.47;;;13.82;nan
9261;BME280;4667;42.726;23.252;2022-10-26T05:00:40;95743.00;;;13.81;nan
9261;BME280;4667;42.726;23.252;2022-10-26T05:03:08;95743.38;;;13.86;nan
9261;BME280;4667;42.726;23.252;2022-10-26T05:05:39;95748.03;;;13.86;nan
9261;BME280;4667;42.726;23.252;2022-10-26T05:08:06;95740.31;;;13.70;nan
9261;BME280;4667;42.726;23.252;2022-10-26T05:10:33;95740.25;;;13.77;nan
9261;BME280;4667;42.726;23.252;2022-10-26T05:13:02;95755.09;;;13.66;nan
9261;BME280;4667;42.726;23.252;2022-10-26T05:15:29;95756.63;;;13.67;nan
9261;BME280;4667;42.726;23.252;2022-10-26T05:18:01;95755.09;;;13.62;nan
9261;BME280;4667;42.726;23.252;2022-10-26T05:20:30;95750.03;;;13.68;nan
9261;BME280;4667;42.726;23.252;2022-10-26T05:23:00;95753.13;;;13.66;nan
9261;BME280;4667;42.726;23.252;2022-10-26T05:25:29;95750.81;;;13.61;nan
9261;BME280;4667;42.726;23.252;2022-10-26T05:27:56;95753.94;;;13.63;nan
9261;BME280;4667;42.726;23.252;2022-10-26T05:30:24;95757.44;;;13.64;nan
9261;BME280;4667;42.726;23.252;2022-10-26T05:32:53;95762.84;;;13.74;nan
9261;BME280;4667;42.726;23.252;2022-10-26T05:35:20;95765.56;;;13.78;nan
9261;BME280;4667;42.726;23.252;2022-10-26T05:37:47;95772.50;;;13.89;nan
9261;BME280;4667;42.726;23.252;2022-10-26T05:40:15;95772.53;;;13.86;nan
9261;BME280;4667;42.726;23.252;2022-10-26T05:42:42;95774.84;;;13.91;nan
9261;BME280;4667;42.726;23.252;2022-10-26T05:45:09;95784.56;;;13.99;nan
9261;BME280;4667;42.726;23.252;2022-10-26T05:47:37;95776.38;;;13.96;nan
9261;BME280;4667;42.726;23.252;2022-10-26T05:50:05;95780.28;;;13.95;nan
9261;BME280;4667;42.726;23.252;2022-10-26T05:52:37;95781.78;;;14.06;nan
9261;BME280;4667;42.726;23.252;2022-10-26T05:55:05;95788.00;;;14.10;nan
9261;BME280;4667;42.726;23.252;2022-10-26T05:57:34;95790.75;;;14.10;nan
9261;BME280;4667;42.726;23.252;2022-10-26T06:00:05;95788.00;;;14.17;nan
9261;BME280;4667;42.726;23.252;2022-10-26T06:02:36;95792.63;;;14.24;nan
9261;BME280;4667;42.726;23.252;2022-10-26T06:05:07;95793.34;;;14.31;nan
9261;BME280;4667;42.726;23.252;2022-10-26T06:07:37;95803.53;;;14.24;nan
9261;BME280;4667;42.726;23.252;2022-10-26T06:10:05;95795.34;;;14.27;nan
9261;BME280;4667;42.726;23.252;2022-10-26T06:12:34;95801.16;;;14.29;nan
9261;BME280;4667;42.726;23.252;2022-10-26T06:15:02;95804.22;;;14.42;nan
9261;BME280;4667;42.726;23.252;2022-10-26T06:17:37;95800.72;;;14.45;nan
9261;BME280;4667;42.726;23.252;2022-10-26T06:20:27;95803.78;;;14.54;nan
9261;BME280;4667;42.726;23.252;2022-10-26T06:43:40;95807.22;;;15.24;nan
9261;BME280;4667;42.726;23.252;2022-10-26T06:46:23;95812.19;;;15.33;nan
9261;BME280;4667;42.726;23.252;2022-10-26T06:48:58;95816.97;;;15.25;nan
9261;BME280;4667;42.726;23.252;2022-10-26T06:51:28;95813.88;;;15.68;nan
9261;BME280;4667;42.726;23.252;2022-10-26T06:54:02;95816.25;;;15.62;nan
9261;BME280;4667;42.726;23.252;2022-10-26T06:56:32;95822.44;;;16.07;nan
9261;BME280;4667;42.726;23.252;2022-10-26T06:59:07;95809.78;;;16.51;nan
9261;BME280;4667;42.726;23.252;2022-10-26T07:01:34;95812.53;;;17.08;nan
9261;BME280;4667;42.726;23.252;2022-10-26T07:04:01;95810.81;;;17.68;nan
9261;BME280;4667;42.726;23.252;2022-10-26T07:06:28;95815.22;;;18.24;nan
9261;BME280;4667;42.726;23.252;2022-10-26T07:08:55;95806.25;;;18.80;nan
9261;BME280;4667;42.726;23.252;2022-10-26T07:11:22;95810.09;;;19.18;nan
9261;BME280;4667;42.726;23.252;2022-10-26T07:13:49;95805.63;;;19.73;nan
9261;BME280;4667;42.726;23.252;2022-10-26T07:16:17;95804.38;;;20.06;nan
9261;BME280;4667;42.726;23.252;2022-10-26T07:18:45;95805.63;;;20.47;nan
9261;BME280;4667;42.726;23.252;2022-10-26T07:21:12;95804.03;;;20.33;nan
9261;BME280;4667;42.726;23.252;2022-10-26T07:23:39;95798.47;;;20.62;nan
9261;BME280;4667;42.726;23.252;2022-10-26T07:26:06;95802.81;;;20.88;nan
9261;BME280;4667;42.726;23.252;2022-10-26T07:28:32;95804.03;;;21.12;nan
9261;BME280;4667;42.726;23.252;2022-10-26T07:31:00;95800.41;;;21.41;nan
9261;BME280;4667;42.726;23.252;2022-10-26T07:33:31;95801.28;;;21.50;nan
9261;BME280;4667;42.726;23.252;2022-10-26T07:35:58;95795.09;;;22.28;nan
9261;BME280;4667;42.726;23.252;2022-10-26T07:38:24;95800.00;;;22.76;nan
9261;BME280;4667;42.726;23.252;2022-10-26T07:40:51;95796.97;;;23.14;nan
9261;BME280;4667;42.726;23.252;2022-10-26T07:43:19;95797.25;;;22.76;nan
9261;BME280;4667;42.726;23.252;2022-10-26T07:45:48;95792.97;;;23.46;nan
9261;BME280;4667;42.726;23.252;2022-10-26T07:48:21;95784.47;;;23.01;nan
9261;BME280;4667;42.726;23.252;2022-10-26T07:51:04;95789.31;;;23.58;nan
9261;BME280;4667;42.726;23.252;2022-10-26T07:54:01;95787.00;;;23.84;nan
9261;BME280;4667;42.726;23.252;2022-10-26T07:56:41;95795.75;;;23.15;nan
9261;BME280;4667;42.726;23.252;2022-10-26T08:02:50;95782.72;;;23.74;nan
9261;BME280;4667;42.726;23.252;2022-10-26T08:05:26;95782.72;;;24.47;nan
9261;BME280;4667;42.726;23.252;2022-10-26T08:08:25;95782.44;;;24.36;nan
9261;BME280;4667;42.726;23.252;2022-10-26T08:11:19;95785.47;;;24.65;nan
9261;BME280;4667;42.726;23.252;2022-10-26T08:14:02;95783.50;;;25.41;nan
9261;BME280;4667;42.726;23.252;2022-10-26T08:16:44;95784.31;;;25.65;nan
9261;BME280;4667;42.726;23.252;2022-10-26T08:19:13;95783.13;;;25.81;nan
9261;BME280;4667;42.726;23.252;2022-10-26T08:21:41;95783.97;;;26.34;nan
9261;BME280;4667;42.726;23.252;2022-10-26T08:24:10;95775.91;;;25.98;nan
9261;BME280;4667;42.726;23.252;2022-10-26T08:26:37;95777.56;;;26.05;nan
9261;BME280;4667;42.726;23.252;2022-10-26T08:29:04;95777.31;;;25.79;nan
9261;BME280;4667;42.726;23.252;2022-10-26T08:31:30;95776.47;;;25.31;nan
9261;BME280;4667;42.726;23.252;2022-10-26T08:33:57;95771.44;;;25.20;nan
9261;BME280;4667;42.726;23.252;2022-10-26T08:36:26;95778.06;;;24.62;nan
9261;BME280;4667;42.726;23.252;2022-10-26T08:38:54;95780.28;;;24.13;nan
9261;BME280;4667;42.726;23.252;2022-10-26T08:41:32;95778.88;;;23.99;nan
9261;BME280;4667;42.726;23.252;2022-10-26T08:44:05;95777.66;;;23.24;nan
9261;BME280;4667;42.726;23.252;2022-10-26T08:46:39;95769.94;;;23.18;nan
9261;BME280;4667;42.726;23.252;2022-10-26T08:49:18;95780.06;;;22.51;nan
9261;BME280;4667;42.726;23.252;2022-10-26T08:51:48;95788.56;;;22.87;nan
9261;BME280;4667;42.726;23.252;2022-10-26T08:54:22;95792.69;;;22.61;nan
9261;BME280;4667;42.726;23.252;2022-10-26T08:56:56;95786.38;;;22.82;nan
9261;BME280;4667;42.726;23.252;2022-10-26T08:59:29;95785.47;;;22.85;nan
9261;BME280;4667;42.726;23.252;2022-10-26T09:02:00;95792.06;;;23.18;nan
9261;BME280;4667;42.726;23.252;2022-10-26T09:04:29;95799.78;;;23.33;nan
9261;BME280;4667;42.726;23.252;2022-10-26T09:07:02;95789.81;;;22.95;nan
9261;BME280;4667;42.726;23.252;2022-10-26T09:09:41;95786.22;;;23.56;nan
9261;BME280;4667;42.726;23.252;2022-10-26T09:12:15;95786.88;;;23.97;nan
9261;BME280;4667;42.726;23.252;2022-10-26T09:14:51;95777.03;;;24.51;nan
9261;BME280;4667;42.726;23.252;2022-10-26T09:17:33;95775.41;;;25.28;nan
9261;BME280;4667;42.726;23.252;2022-10-26T09:20:28;95774.44;;;24.98;nan
9261;BME280;4667;42.726;23.252;2022-10-26T09:23:09;95777.91;;;25.17;nan
9261;BME280;4667;42.726;23.252;2022-10-26T09:25:45;95778.53;;;26.01;nan
9261;BME280;4667;42.726;23.252;2022-10-26T09:28:17;95778.84;;;26.57;nan
9261;BME280;4667;42.726;23.252;2022-10-26T09:30:45;95776.13;;;27.21;nan
9261;BME280;4667;42.726;23.252;2022-10-26T09:33:15;95774.22;;;28.02;nan
9261;BME280;4667;42.726;23.252;2022-10-26T09:35:46;95775.00;;;27.48;nan
9261;BME280;4667;42.726;23.252;2022-10-26T09:38:22;95767.69;;;28.26;nan
9261;BME280;4667;42.726;23.252;2022-10-26T09:40:54;95765.88;;;28.23;nan
9261;BME280;4667;42.726;23.252;2022-10-26T09:43:30;95751.59;;;28.35;nan
9261;BME280;4667;42.726;23.252;2022-10-26T09:45:58;95760.19;;;29.57;nan
9261;BME280;4667;42.726;23.252;2022-10-26T09:48:31;95759.22;;;30.09;nan
9261;BME280;4667;42.726;23.252;2022-10-26T09:51:00;95758.47;;;30.14;nan
9261;BME280;4667;42.726;23.252;2022-10-26T09:53:27;95758.25;;;30.34;nan
9261;BME280;4667;42.726;23.252;2022-10-26T09:56:00;95757.78;;;30.47;nan
9261;BME280;4667;42.726;23.252;2022-10-26T09:58:35;95751.19;;;29.79;nan
9261;BME280;4667;42.726;23.252;2022-10-26T10:01:04;95749.97;;;29.43;nan
9261;BME280;4667;42.726;23.252;2022-10-26T10:03:31;95751.66;;;30.26;nan
9261;BME280;4667;42.726;23.252;2022-10-26T10:06:16;95757.63;;;31.06;nan
9261;BME280;4667;42.726;23.252;2022-10-26T10:09:04;95744.53;;;30.36;nan
9261;BME280;4667;42.726;23.252;2022-10-26T10:11:43;95743.34;;;30.54;nan
9261;BME280;4667;42.726;23.252;2022-10-26T10:14:21;95739.03;;;31.25;nan
9261;BME280;4667;42.726;23.252;2022-10-26T10:16:51;95742.84;;;31.00;nan
9261;BME280;4667;42.726;23.252;2022-10-26T10:19:23;95731.66;;;31.39;nan
9261;BME280;4667;42.726;23.252;2022-10-26T10:21:53;95735.22;;;30.89;nan
9261;BME280;4667;42.726;23.252;2022-10-26T10:24:22;95726.56;;;29.83;nan
9261;BME280;4667;42.726;23.252;2022-10-26T10:27:01;95727.78;;;30.47;nan
9261;BME280;4667;42.726;23.252;2022-10-26T10:29:31;95727.31;;;30.99;nan
9261;BME280;4667;42.726;23.252;2022-10-26T10:32:00;95719.41;;;31.36;nan
9261;BME280;4667;42.726;23.252;2022-10-26T10:34:29;95717.41;;;31.26;nan
9261;BME280;4667;42.726;23.252;2022-10-26T10:36:57;95719.19;;;31.17;nan
9261;BME280;4667;42.726;23.252;2022-10-26T10:39:33;95712.81;;;31.39;nan
9261;BME280;4667;42.726;23.252;2022-10-26T10:42:01;95711.31;;;31.27;nan
9261;BME280;4667;42.726;23.252;2022-10-26T10:44:31;95709.28;;;30.94;nan
9261;BME280;4667;42.726;23.252;2022-10-26T10:47:00;95708.78;;;30.85;nan
9261;BME280;4667;42.726;23.252;2022-10-26T10:49:29;95706.75;;;31.13;nan
9261;BME280;4667;42.726;23.252;2022-10-26T10:51:56;95703.34;;;31.48;nan
9261;BME280;4667;42.726;23.252;2022-10-26T10:54:27;95699.53;;;31.51;nan
9261;BME280;4667;42.726;23.252;2022-10-26T10:56:56;95702.16;;;32.01;nan
9261;BME280;4667;42.726;23.252;2022-10-26T10:59:41;95704.66;;;32.57;nan
9261;BME280;4667;42.726;23.252;2022-10-26T11:02:28;95694.91;;;31.65;nan
9261;BME280;4667;42.726;23.252;2022-10-26T11:05:18;95690.03;;;31.82;nan
9261;BME280;4667;42.726;23.252;2022-10-26T11:07:50;95688.59;;;31.47;nan
9261;BME280;4667;42.726;23.252;2022-10-26T11:10:22;95688.91;;;31.33;nan
9261;BME280;4667;42.726;23.252;2022-10-26T11:12:54;95686.28;;;31.63;nan
9261;BME280;4667;42.726;23.252;2022-10-26T11:15:25;95694.97;;;31.37;nan
9261;BME280;4667;42.726;23.252;2022-10-26T11:17:59;95696.28;;;32.05;nan
9261;BME280;4667;42.726;23.252;2022-10-26T11:20:31;95686.16;;;31.90;nan
9261;BME280;4667;42.726;23.252;2022-10-26T11:23:03;95687.28;;;31.54;nan
9261;BME280;4667;42.726;23.252;2022-10-26T11:25:37;95695.72;;;32.23;nan
9261;BME280;4667;42.726;23.252;2022-10-26T11:28:13;95683.69;;;31.76;nan
9261;BME280;4667;42.726;23.252;2022-10-26T11:30:47;95684.34;;;31.98;nan
9261;BME280;4667;42.726;23.252;2022-10-26T11:33:19;95677.25;;;31.92;nan
9261;BME280;4667;42.726;23.252;2022-10-26T11:35:54;95673.91;;;31.99;nan
9261;BME280;4667;42.726;23.252;2022-10-26T11:38:29;95677.28;;;32.33;nan
9261;BME280;4667;42.726;23.252;2022-10-26T11:41:01;95678.09;;;32.28;nan
9261;BME280;4667;42.726;23.252;2022-10-26T11:43:34;95672.81;;;32.13;nan
9261;BME280;4667;42.726;23.252;2022-10-26T11:46:09;95674.19;;;32.72;nan
9261;BME280;4667;42.726;23.252;2022-10-26T11:48:43;95677.06;;;32.66;nan
9261;BME280;4667;42.726;23.252;2022-10-26T11:51:16;95671.50;;;32.55;nan
9261;BME280;4667;42.726;23.252;2022-10-26T11:53:44;95672.09;;;32.78;nan
9261;BME280;4667;42.726;23.252;2022-10-26T11:56:17;95665.56;;;32.70;nan
9261;BME280;4667;42.726;23.252;2022-10-26T11:58:47;95671.41;;;32.72;nan
9261;BME280;4667;42.726;23.252;2022-10-26T12:01:16;95665.22;;;32.43;nan
9261;BME280;4667;42.726;23.252;2022-10-26T12:03:45;95658.50;;;33.17;nan
9261;BME280;4667;42.726;23.252;2022-10-26T12:06:19;95655.97;;;33.38;nan
9261;BME280;4667;42.726;23.252;2022-10-26T12:08:50;95660.75;;;33.25;nan
9261;BME280;4667;42.726;23.252;2022-10-26T12:11:31;95656.41;;;33.24;nan
9261;BME280;4667;42.726;23.252;2022-10-26T12:14:02;95666.88;;;32.93;nan
9261;BME280;4667;42.726;23.252;2022-10-26T12:16:43;95670.41;;;32.69;nan
9261;BME280;4667;42.726;23.252;2022-10-26T12:19:17;95660.03;;;32.89;nan
9261;BME280;4667;42.726;23.252;2022-10-26T12:21:48;95660.88;;;32.78;nan
9261;BME280;4667;42.726;23.252;2022-10-26T12:24:26;95658.25;;;32.56;nan
9261;BME280;4667;42.726;23.252;2022-10-26T12:26:54;95655.88;;;32.35;nan
9261;BME280;4667;42.726;23.252;2022-10-26T12:29:35;95658.25;;;32.56;nan
9261;BME280;4667;42.726;23.252;2022-10-26T12:35:39;95654.09;;;32.68;nan
9261;BME280;4667;42.726;23.252;2022-10-26T12:41:20;95655.91;;;32.24;nan
9261;BME280;4667;42.726;23.252;2022-10-26T12:43:47;95663.94;;;31.35;nan
9261;BME280;4667;42.726;23.252;2022-10-26T12:52:17;95647.09;;;32.03;nan
9261;BME280;4667;42.726;23.252;2022-10-26T12:55:00;95654.97;;;31.47;nan
9261;BME280;4667;42.726;23.252;2022-10-26T12:57:38;95657.25;;;31.54;nan
9261;BME280;4667;42.726;23.252;2022-10-26T13:00:14;95655.72;;;32.17;nan
9261;BME280;4667;42.726;23.252;2022-10-26T13:02:53;95657.25;;;31.60;nan
9261;BME280;4667;42.726;23.252;2022-10-26T13:05:37;95668.78;;;31.23;nan
9261;BME280;4667;42.726;23.252;2022-10-26T13:08:13;95661.47;;;30.92;nan
9261;BME280;4667;42.726;23.252;2022-10-26T13:10:58;95661.63;;;31.44;nan
9261;BME280;4667;42.726;23.252;2022-10-26T13:13:25;95655.03;;;31.94;nan
9261;BME280;4667;42.726;23.252;2022-10-26T13:15:56;95655.09;;;31.83;nan
9261;BME280;4667;42.726;23.252;2022-10-26T13:18:24;95672.78;;;31.55;nan
9261;BME280;4667;42.726;23.252;2022-10-26T13:20:52;95664.81;;;31.76;nan
9261;BME280;4667;42.726;23.252;2022-10-26T13:23:27;95667.88;;;31.78;nan
9261;BME280;4667;42.726;23.252;2022-10-26T13:26:02;95662.34;;;31.56;nan
9261;BME280;4667;42.726;23.252;2022-10-26T13:28:32;95675.09;;;31.40;nan
9261;BME280;4667;42.726;23.252;2022-10-26T13:31:11;95670.34;;;31.02;nan
9261;BME280;4667;42.726;23.252;2022-10-26T13:33:43;95667.59;;;30.74;nan
9261;BME280;4667;42.726;23.252;2022-10-26T13:36:16;95670.63;;;30.59;nan
9261;BME280;4667;42.726;23.252;2022-10-26T13:38:46;95673.31;;;30.03;nan
9261;BME280;4667;42.726;23.252;2022-10-26T13:41:21;95667.66;;;28.91;nan
9261;BME280;4667;42.726;23.252;2022-10-26T13:43:53;95664.38;;;28.61;nan
9261;BME280;4667;42.726;23.252;2022-10-26T13:46:25;95674.63;;;27.72;nan
9261;BME280;4667;42.726;23.252;2022-10-26T13:48:57;95677.19;;;27.75;nan
9261;BME280;4667;42.726;23.252;2022-10-26T13:51:38;95675.00;;;27.04;nan
9261;BME280;4667;42.726;23.252;2022-10-26T13:54:17;95674.44;;;26.70;nan
9261;BME280;4667;42.726;23.252;2022-10-26T13:56:56;95683.41;;;27.09;nan
9261;BME280;4667;42.726;23.252;2022-10-26T13:59:25;95674.19;;;26.24;nan
9261;BME280;4667;42.726;23.252;2022-10-26T14:02:05;95680.63;;;26.45;nan
9261;BME280;4667;42.726;23.252;2022-10-26T14:04:32;95685.03;;;26.37;nan
9261;BME280;4667;42.726;23.252;2022-10-26T14:06:59;95696.06;;;25.93;nan
9261;BME280;4667;42.726;23.252;2022-10-26T14:09:28;95680.41;;;25.66;nan
9261;BME280;4667;42.726;23.252;2022-10-26T14:11:56;95692.38;;;25.48;nan
9261;BME280;4667;42.726;23.252;2022-10-26T14:14:25;95687.97;;;25.42;nan
9261;BME280;4667;42.726;23.252;2022-10-26T14:16:54;95689.63;;;25.48;nan
9261;BME280;4667;42.726;23.252;2022-10-26T14:19:26;95690.97;;;25.29;nan
9261;BME280;4667;42.726;23.252;2022-10-26T14:21:54;95690.25;;;24.87;nan
9261;BME280;4667;42.726;23.252;2022-10-26T14:24:22;95692.44;;;25.15;nan
9261;BME280;4667;42.726;23.252;2022-10-26T14:26:50;95695.25;;;25.06;nan
9261;BME280;4667;42.726;23.252;2022-10-26T14:29:19;95686.22;;;24.55;nan
9261;BME280;4667;42.726;23.252;2022-10-26T14:31:47;95692.88;;;24.39;nan
9261;BME280;4667;42.726;23.252;2022-10-26T14:34:15;95688.63;;;24.01;nan
9261;BME280;4667;42.726;23.252;2022-10-26T14:36:45;95688.47;;;23.96;nan
9261;BME280;4667;42.726;23.252;2022-10-26T14:39:18;95688.16;;;23.85;nan
9261;BME280;4667;42.726;23.252;2022-10-26T14:41:47;95691.41;;;23.47;nan
9261;BME280;4667;42.726;23.252;2022-10-26T14:44:19;95701.47;;;23.32;nan
9261;BME280;4667;42.726;23.252;2022-10-26T14:46:46;95697.03;;;23.25;nan
9261;BME280;4667;42.726;23.252;2022-10-26T14:49:17;95688.00;;;22.85;nan
9261;BME280;4667;42.726;23.252;2022-10-26T14:51:45;95697.09;;;22.94;nan
9261;BME280;4667;42.726;23.252;2022-10-26T14:54:19;95695.41;;;22.88;nan
9261;BME280;4667;42.726;23.252;2022-10-26T14:56:46;95703.09;;;22.62;nan
9261;BME280;4667;42.726;23.252;2022-10-26T14:59:21;95701.88;;;22.32;nan